Hilo, HI

4:58 PM HST on May 23, 2017 (GMT -1000)
Hilo International | | Change Station

Elev 36 ft 19.72 °N, 155.05 °W | Updated 5 minutes ago

Light Rain
Light Rain
73 °F
Feels Like 73 °F
N
4
Wind Variable Wind from Variable

Today
High -- | Low -- °F
--% Chance of Precip.
Yesterday
High -- | Low -- °F
Precip. -- in
Pressure 30.00 in
Visibility 4.0 miles
Clouds Mostly Cloudy 2400 ft
Overcast 3900 ft
Dew Point 68 °F
Humidity 84%
Rainfall 0.08 in
Snow Depth Not available.
5:42 AM 6:52 PM
Waning Crescent, 4% visible
METAR PHTO 240253Z VRB03KT 4SM -RA BKN024 OVC039 23/20 A3001 RMK AO2 RAE33B38 SLP159 P0003 60004 T02280200 55001
Pressure 30.00 in
Visibility 4.0 miles
Clouds Mostly Cloudy 2400 ft
Overcast 3900 ft
Dew Point 68 °F
Humidity 84%
Rainfall 0.08 in
Snow Depth Not available.
5:42 AM 6:52 PM
Waning Crescent, 4% visible
METAR PHTO 240253Z VRB03KT 4SM -RA BKN024 OVC039 23/20 A3001 RMK AO2 RAE33B38 SLP159 P0003 60004 T02280200 55001

Get Severe Weather Alerts

Thanks for signing up!

Be on the lookout for a verification email in your inbox.

You'll start receiving the daily forecast at 6 AM.

×

10-Day Weather Forecast

Almanac

Astronomy

May. 23, 2017 Rise Set
Actual Time
Civil Twilight
Nautical Twilight
Astronomical Twilight
Moon
Length of Visible Light
Length of Day
Tomorrow will be .
, % of the Moon is Illuminated

Today's Extremes

State Highs State Lows

Community

WunderPhotos

Category 6

Welcome to Category 6. This is the collective home for Weather Underground's featured writeups by Dr. Jeff Masters (right), Bob Henson (left), Chris Burt, and other regular contributors.

Nearby

Air Quality

  Air Quality AQ Index Pollutant
Not available.

Snow Depth

Station Depth Elevation

Earthquake Activity

City Distance Mag. Time & Date
Minimum magnitude displayed is 2.5.

Coastal Water Temperatures

Place Temperature

Stations

Nearby Weather Stations

Station Location Temp. Windchill Dew Point Humidity Wind Precip. Elev Updated Type
                   

Watches & Warnings

There are currently no watches in effect.